Aviation Digital Data Service (ADDS)

Output produced by METARs form (0609 UTC 16 February 2019)
found at http://www.aviationweather.gov/metar/data/
 
METAR text: FAKM 160600Z 31002KT CAVOK 21/16 Q1017
Conditions at: FAKM (KIMBERLEY/BJ VOR, ZA) observed 0600 UTC 16 February 2019
Temperature: 21.0°C (70°F)
Dewpoint: 16.0°C (61°F) [RH = 73%]
Pressure (altimeter): 30.03 inches Hg (1017.0 mb)
Winds: from the NW (310 degrees) at 2 MPH (2 knots; 1.0 m/s)
Visibility: 6 or more miles (10+ km)
Ceiling: ceiling and visibility are OK
Clouds: unknown
Weather: no significant weather observed at this time

METAR text: FAKM 160500Z 34003KT CAVOK 19/16 Q1017
Conditions at: FAKM (KIMBERLEY/BJ VOR, ZA) observed 0500 UTC 16 February 2019
Temperature: 19.0°C (66°F)
Dewpoint: 16.0°C (61°F) [RH = 83%]
Pressure (altimeter): 30.03 inches Hg (1017.0 mb)
Winds: from the NNW (340 degrees) at 3 MPH (3 knots; 1.5 m/s)
Visibility: 6 or more miles (10+ km)
Ceiling: ceiling and visibility are OK
Clouds: unknown
Weather: no significant weather observed at this time

METAR text: FAKM 160444Z 34003KT CAVOK 18/16 Q1017
Conditions at: FAKM (KIMBERLEY/BJ VOR, ZA) observed 0444 UTC 16 February 2019
Temperature: 18.0°C (64°F)
Dewpoint: 16.0°C (61°F) [RH = 88%]
Pressure (altimeter): 30.03 inches Hg (1017.0 mb)
Winds: from the NNW (340 degrees) at 3 MPH (3 knots; 1.5 m/s)
Visibility: 6 or more miles (10+ km)
Ceiling: ceiling and visibility are OK
Clouds: unknown
Weather: no significant weather observed at this time

METAR text: FAKM 160400Z 35004KT CAVOK 16/15 Q1017
Conditions at: FAKM (KIMBERLEY/BJ VOR, ZA) observed 0400 UTC 16 February 2019
Temperature: 16.0°C (61°F)
Dewpoint: 15.0°C (59°F) [RH = 94%]
Pressure (altimeter): 30.03 inches Hg (1017.0 mb)
Winds: from the N (350 degrees) at 5 MPH (4 knots; 2.1 m/s)
Visibility: 6 or more miles (10+ km)
Ceiling: ceiling and visibility are OK
Clouds: unknown
Weather: no significant weather observed at this time

METAR text: FAKM 160300Z 14001KT CAVOK 17/15 Q1018
Conditions at: FAKM (KIMBERLEY/BJ VOR, ZA) observed 0300 UTC 16 February 2019
Temperature: 17.0°C (63°F)
Dewpoint: 15.0°C (59°F) [RH = 88%]
Pressure (altimeter): 30.06 inches Hg (1018.0 mb)
Winds: from the SE (140 degrees) at 1 MPH (1 knots; 0.5 m/s)
Visibility: 6 or more miles (10+ km)
Ceiling: ceiling and visibility are OK
Clouds: unknown
Weather: no significant weather observed at this time

METAR text: FAKM 160200Z AUTO 20006KT //// // ////// 17/15 Q1018
Conditions at: FAKM (KIMBERLEY/BJ VOR, ZA) observed 0200 UTC 16 February 2019
Temperature: 17.0°C (63°F)
Dewpoint: 15.0°C (59°F) [RH = 88%]
Pressure (altimeter): 30.06 inches Hg (1018.0 mb)
Winds: from the SSW (200 degrees) at 7 MPH (6 knots; 3.1 m/s)
Visibility: missing
Ceiling: unknown
Clouds: missing
Weather: no significant weather observed at this time

METAR text: FAKM 160100Z AUTO 22010KT //// // ////// 18/16 Q1018
Conditions at: FAKM (KIMBERLEY/BJ VOR, ZA) observed 0100 UTC 16 February 2019
Temperature: 18.0°C (64°F)
Dewpoint: 16.0°C (61°F) [RH = 88%]
Pressure (altimeter): 30.06 inches Hg (1018.0 mb)
Winds: from the SW (220 degrees) at 12 MPH (10 knots; 5.1 m/s)
Visibility: missing
Ceiling: unknown
Clouds: missing
Weather: no significant weather observed at this time

METAR text: FAKM 160000Z AUTO 01005KT //// // ////// 19/16 Q1016
Conditions at: FAKM (KIMBERLEY/BJ VOR, ZA) observed 0000 UTC 16 February 2019
Temperature: 19.0°C (66°F)
Dewpoint: 16.0°C (61°F) [RH = 83%]
Pressure (altimeter): 30.00 inches Hg (1016.0 mb)
Winds: from the N (10 degrees) at 6 MPH (5 knots; 2.6 m/s)
Visibility: missing
Ceiling: unknown
Clouds: missing
Weather: no significant weather observed at this time

METAR text: FAKM 152300Z AUTO 05009KT //// // ////// 19/16 Q1016
Conditions at: FAKM (KIMBERLEY/BJ VOR, ZA) observed 2300 UTC 15 February 2019
Temperature: 19.0°C (66°F)
Dewpoint: 16.0°C (61°F) [RH = 83%]
Pressure (altimeter): 30.00 inches Hg (1016.0 mb)
Winds: from the NE (50 degrees) at 10 MPH (9 knots; 4.6 m/s)
Visibility: missing
Ceiling: unknown
Clouds: missing
Weather: no significant weather observed at this time

METAR text: FAKM 152200Z AUTO 14004KT //// // ////// 18/16 Q1018
Conditions at: FAKM (KIMBERLEY/BJ VOR, ZA) observed 2200 UTC 15 February 2019
Temperature: 18.0°C (64°F)
Dewpoint: 16.0°C (61°F) [RH = 88%]
Pressure (altimeter): 30.06 inches Hg (1018.0 mb)
Winds: from the SE (140 degrees) at 5 MPH (4 knots; 2.1 m/s)
Visibility: missing
Ceiling: unknown
Clouds: missing
Weather: no significant weather observed at this time

METAR text: FAKM 152100Z AUTO 19010G20KT //// // ////// 19/16 Q1020
Conditions at: FAKM (KIMBERLEY/BJ VOR, ZA) observed 2100 UTC 15 February 2019
Temperature: 19.0°C (66°F)
Dewpoint: 16.0°C (61°F) [RH = 83%]
Pressure (altimeter): 30.12 inches Hg (1020.0 mb)
Winds: from the S (190 degrees) at 12 MPH (10 knots; 5.1 m/s)
gusting to 23 MPH (20 knots; 10.3 m/s)
Visibility: missing
Ceiling: unknown
Clouds: missing
Weather: no significant weather observed at this time

METAR text: FAKM 152000Z AUTO 07003KT //// // ////// 19/16 Q1018
Conditions at: FAKM (KIMBERLEY/BJ VOR, ZA) observed 2000 UTC 15 February 2019
Temperature: 19.0°C (66°F)
Dewpoint: 16.0°C (61°F) [RH = 83%]
Pressure (altimeter): 30.06 inches Hg (1018.0 mb)
Winds: from the ENE (70 degrees) at 3 MPH (3 knots; 1.5 m/s)
Visibility: missing
Ceiling: unknown
Clouds: missing
Weather: no significant weather observed at this time

METAR text: FAKM 151900Z AUTO 05004KT //// // ////// 20/16 Q1018
Conditions at: FAKM (KIMBERLEY/BJ VOR, ZA) observed 1900 UTC 15 February 2019
Temperature: 20.0°C (68°F)
Dewpoint: 16.0°C (61°F) [RH = 78%]
Pressure (altimeter): 30.06 inches Hg (1018.0 mb)
Winds: from the NE (50 degrees) at 5 MPH (4 knots; 2.1 m/s)
Visibility: missing
Ceiling: unknown
Clouds: missing
Weather: no significant weather observed at this time

METAR text: FAKM 151800Z 04007KT 9999 FEW040CB BKN100 20/17 Q1016
Conditions at: FAKM (KIMBERLEY/BJ VOR, ZA) observed 1800 UTC 15 February 2019
Temperature: 20.0°C (68°F)
Dewpoint: 17.0°C (63°F) [RH = 83%]
Pressure (altimeter): 30.00 inches Hg (1016.0 mb)
Winds: from the NE (40 degrees) at 8 MPH (7 knots; 3.6 m/s)
Visibility: 6 or more miles (10+ km)
Ceiling: 10000 feet AGL
Clouds: few clouds at 4000 feet AGL
broken clouds at 10000 feet AGL
Weather: no significant weather observed at this time

METAR text: FAKM 151700Z 04006KT 9999 SCT025 22/18 Q1017
Conditions at: FAKM (KIMBERLEY/BJ VOR, ZA) observed 1700 UTC 15 February 2019
Temperature: 22.0°C (72°F)
Dewpoint: 18.0°C (64°F) [RH = 78%]
Pressure (altimeter): 30.03 inches Hg (1017.0 mb)
Winds: from the NE (40 degrees) at 7 MPH (6 knots; 3.1 m/s)
Visibility: 6 or more miles (10+ km)
Ceiling: at least 12,000 feet AGL
Clouds: scattered clouds at 2500 feet AGL
Weather: no significant weather observed at this time

METAR text: FAKM 151600Z 03005KT 9999 FEW025 BKN100 23/18 Q1016
Conditions at: FAKM (KIMBERLEY/BJ VOR, ZA) observed 1600 UTC 15 February 2019
Temperature: 23.0°C (73°F)
Dewpoint: 18.0°C (64°F) [RH = 73%]
Pressure (altimeter): 30.00 inches Hg (1016.0 mb)
Winds: from the NNE (30 degrees) at 6 MPH (5 knots; 2.6 m/s)
Visibility: 6 or more miles (10+ km)
Ceiling: 10000 feet AGL
Clouds: few clouds at 2500 feet AGL
broken clouds at 10000 feet AGL
Weather: no significant weather observed at this time

METAR text: FAKM 151500Z 01005KT 9999 FEW025 BKN100 24/18 Q1016
Conditions at: FAKM (KIMBERLEY/BJ VOR, ZA) observed 1500 UTC 15 February 2019
Temperature: 24.0°C (75°F)
Dewpoint: 18.0°C (64°F) [RH = 69%]
Pressure (altimeter): 30.00 inches Hg (1016.0 mb)
Winds: from the N (10 degrees) at 6 MPH (5 knots; 2.6 m/s)
Visibility: 6 or more miles (10+ km)
Ceiling: 10000 feet AGL
Clouds: few clouds at 2500 feet AGL
broken clouds at 10000 feet AGL
Weather: no significant weather observed at this time

METAR text: FAKM 151400Z 36003KT 9999 FEW020 OVC080 23/18 Q1017
Conditions at: FAKM (KIMBERLEY/BJ VOR, ZA) observed 1400 UTC 15 February 2019
Temperature: 23.0°C (73°F)
Dewpoint: 18.0°C (64°F) [RH = 73%]
Pressure (altimeter): 30.03 inches Hg (1017.0 mb)
Winds: from the N (360 degrees) at 3 MPH (3 knots; 1.5 m/s)
Visibility: 6 or more miles (10+ km)
Ceiling: 8000 feet AGL
Clouds: few clouds at 2000 feet AGL
overcast cloud deck at 8000 feet AGL
Weather: no significant weather observed at this time

METAR text: FAKM 151305Z 34010KT 9999 SCT015 BKN080 22/18 Q1017 REDZ
Conditions at: FAKM (KIMBERLEY/BJ VOR, ZA) observed 1305 UTC 15 February 2019
Temperature: 22.0°C (72°F)
Dewpoint: 18.0°C (64°F) [RH = 78%]
Pressure (altimeter): 30.03 inches Hg (1017.0 mb)
Winds: from the NNW (340 degrees) at 12 MPH (10 knots; 5.1 m/s)
Visibility: 6 or more miles (10+ km)
Ceiling: 8000 feet AGL
Clouds: scattered clouds at 1500 feet AGL
broken clouds at 8000 feet AGL
Weather: no significant weather observed at this time

METAR text: FAKM 151300Z 34009KT 9999 -DZ OVC010 21/18 Q1017
Conditions at: FAKM (KIMBERLEY/BJ VOR, ZA) observed 1300 UTC 15 February 2019
Temperature: 21.0°C (70°F)
Dewpoint: 18.0°C (64°F) [RH = 83%]
Pressure (altimeter): 30.03 inches Hg (1017.0 mb)
Winds: from the NNW (340 degrees) at 10 MPH (9 knots; 4.6 m/s)
Visibility: 6 or more miles (10+ km)
Ceiling: 1000 feet AGL
Clouds: overcast cloud deck at 1000 feet AGL
Weather: -DZ  (light drizzle)

METAR text: FAKM 151235Z 35008KT 9999 -DZ OVC010 22/19 Q1017
Conditions at: FAKM (KIMBERLEY/BJ VOR, ZA) observed 1235 UTC 15 February 2019
Temperature: 22.0°C (72°F)
Dewpoint: 19.0°C (66°F) [RH = 83%]
Pressure (altimeter): 30.03 inches Hg (1017.0 mb)
Winds: from the N (350 degrees) at 9 MPH (8 knots; 4.1 m/s)
Visibility: 6 or more miles (10+ km)
Ceiling: 1000 feet AGL
Clouds: overcast cloud deck at 1000 feet AGL
Weather: -DZ  (light drizzle)

METAR text: FAKM 151200Z 36010KT 9999 SCT015 OVC025 23/18 Q1017
Conditions at: FAKM (KIMBERLEY/BJ VOR, ZA) observed 1200 UTC 15 February 2019
Temperature: 23.0°C (73°F)
Dewpoint: 18.0°C (64°F) [RH = 73%]
Pressure (altimeter): 30.03 inches Hg (1017.0 mb)
Winds: from the N (360 degrees) at 12 MPH (10 knots; 5.1 m/s)
Visibility: 6 or more miles (10+ km)
Ceiling: 2500 feet AGL
Clouds: scattered clouds at 1500 feet AGL
overcast cloud deck at 2500 feet AGL
Weather: no significant weather observed at this time

METAR text: FAKM 151100Z 36011KT 9999 OVC015 21/18 Q1018
Conditions at: FAKM (KIMBERLEY/BJ VOR, ZA) observed 1100 UTC 15 February 2019
Temperature: 21.0°C (70°F)
Dewpoint: 18.0°C (64°F) [RH = 83%]
Pressure (altimeter): 30.06 inches Hg (1018.0 mb)
Winds: from the N (360 degrees) at 13 MPH (11 knots; 5.7 m/s)
Visibility: 6 or more miles (10+ km)
Ceiling: 1500 feet AGL
Clouds: overcast cloud deck at 1500 feet AGL
Weather: no significant weather observed at this time

METAR text: FAKM 151030Z 35013KT 9999 OVC012 21/18 Q1018 RERA
Conditions at: FAKM (KIMBERLEY/BJ VOR, ZA) observed 1030 UTC 15 February 2019
Temperature: 21.0°C (70°F)
Dewpoint: 18.0°C (64°F) [RH = 83%]
Pressure (altimeter): 30.06 inches Hg (1018.0 mb)
Winds: from the N (350 degrees) at 15 MPH (13 knots; 6.7 m/s)
Visibility: 6 or more miles (10+ km)
Ceiling: 1200 feet AGL
Clouds: overcast cloud deck at 1200 feet AGL
Weather: no significant weather observed at this time

METAR text: FAKM 151000Z 01011KT 9999 -RA OVC010 21/18 Q1018
Conditions at: FAKM (KIMBERLEY/BJ VOR, ZA) observed 1000 UTC 15 February 2019
Temperature: 21.0°C (70°F)
Dewpoint: 18.0°C (64°F) [RH = 83%]
Pressure (altimeter): 30.06 inches Hg (1018.0 mb)
Winds: from the N (10 degrees) at 13 MPH (11 knots; 5.7 m/s)
Visibility: 6 or more miles (10+ km)
Ceiling: 1000 feet AGL
Clouds: overcast cloud deck at 1000 feet AGL
Weather: -RA  (light rain)

METAR text: FAKM 150900Z 02014KT 9999 OVC012 23/17 Q1019
Conditions at: FAKM (KIMBERLEY/BJ VOR, ZA) observed 0900 UTC 15 February 2019
Temperature: 23.0°C (73°F)
Dewpoint: 17.0°C (63°F) [RH = 69%]
Pressure (altimeter): 30.09 inches Hg (1019.0 mb)
Winds: from the NNE (20 degrees) at 16 MPH (14 knots; 7.2 m/s)
Visibility: 6 or more miles (10+ km)
Ceiling: 1200 feet AGL
Clouds: overcast cloud deck at 1200 feet AGL
Weather: no significant weather observed at this time

METAR text: FAKM 150800Z 02009KT 9999 BKN010 OVC080 22/18 Q1019
Conditions at: FAKM (KIMBERLEY/BJ VOR, ZA) observed 0800 UTC 15 February 2019
Temperature: 22.0°C (72°F)
Dewpoint: 18.0°C (64°F) [RH = 78%]
Pressure (altimeter): 30.09 inches Hg (1019.0 mb)
Winds: from the NNE (20 degrees) at 10 MPH (9 knots; 4.6 m/s)
Visibility: 6 or more miles (10+ km)
Ceiling: 1000 feet AGL
Clouds: broken clouds at 1000 feet AGL
overcast cloud deck at 8000 feet AGL
Weather: no significant weather observed at this time

METAR text: FAKM 150700Z 03007KT 9999 BKN010 22/17 Q1019
Conditions at: FAKM (KIMBERLEY/BJ VOR, ZA) observed 0700 UTC 15 February 2019
Temperature: 22.0°C (72°F)
Dewpoint: 17.0°C (63°F) [RH = 73%]
Pressure (altimeter): 30.09 inches Hg (1019.0 mb)
Winds: from the NNE (30 degrees) at 8 MPH (7 knots; 3.6 m/s)
Visibility: 6 or more miles (10+ km)
Ceiling: 1000 feet AGL
Clouds: broken clouds at 1000 feet AGL
Weather: no significant weather observed at this time

METAR text: FAKM 150600Z 05004KT 9999 SCT007 BKN060 22/18 Q1019
Conditions at: FAKM (KIMBERLEY/BJ VOR, ZA) observed 0600 UTC 15 February 2019
Temperature: 22.0°C (72°F)
Dewpoint: 18.0°C (64°F) [RH = 78%]
Pressure (altimeter): 30.09 inches Hg (1019.0 mb)
Winds: from the NE (50 degrees) at 5 MPH (4 knots; 2.1 m/s)
Visibility: 6 or more miles (10+ km)
Ceiling: 6000 feet AGL
Clouds: scattered clouds at 700 feet AGL
broken clouds at 6000 feet AGL
Weather: no significant weather observed at this time

METAR text: FAKM 150500Z 02005KT CAVOK 21/18 Q1019
Conditions at: FAKM (KIMBERLEY/BJ VOR, ZA) observed 0500 UTC 15 February 2019
Temperature: 21.0°C (70°F)
Dewpoint: 18.0°C (64°F) [RH = 83%]
Pressure (altimeter): 30.09 inches Hg (1019.0 mb)
Winds: from the NNE (20 degrees) at 6 MPH (5 knots; 2.6 m/s)
Visibility: 6 or more miles (10+ km)
Ceiling: ceiling and visibility are OK
Clouds: unknown
Weather: no significant weather observed at this time

METAR text: FAKM 150400Z 02009KT 9999 BKN030 21/17 Q1018
Conditions at: FAKM (KIMBERLEY/BJ VOR, ZA) observed 0400 UTC 15 February 2019
Temperature: 21.0°C (70°F)
Dewpoint: 17.0°C (63°F) [RH = 78%]
Pressure (altimeter): 30.06 inches Hg (1018.0 mb)
Winds: from the NNE (20 degrees) at 10 MPH (9 knots; 4.6 m/s)
Visibility: 6 or more miles (10+ km)
Ceiling: 3000 feet AGL
Clouds: broken clouds at 3000 feet AGL
Weather: no significant weather observed at this time

METAR text: FAKM 150300Z 02007KT CAVOK 21/18 Q1018
Conditions at: FAKM (KIMBERLEY/BJ VOR, ZA) observed 0300 UTC 15 February 2019
Temperature: 21.0°C (70°F)
Dewpoint: 18.0°C (64°F) [RH = 83%]
Pressure (altimeter): 30.06 inches Hg (1018.0 mb)
Winds: from the NNE (20 degrees) at 8 MPH (7 knots; 3.6 m/s)
Visibility: 6 or more miles (10+ km)
Ceiling: ceiling and visibility are OK
Clouds: unknown
Weather: no significant weather observed at this time

METAR text: FAKM 150200Z AUTO 03006KT //// // ////// 21/18 Q1018
Conditions at: FAKM (KIMBERLEY/BJ VOR, ZA) observed 0200 UTC 15 February 2019
Temperature: 21.0°C (70°F)
Dewpoint: 18.0°C (64°F) [RH = 83%]
Pressure (altimeter): 30.06 inches Hg (1018.0 mb)
Winds: from the NNE (30 degrees) at 7 MPH (6 knots; 3.1 m/s)
Visibility: missing
Ceiling: unknown
Clouds: missing
Weather: no significant weather observed at this time

METAR text: FAKM 150100Z AUTO 03005KT //// // ////// 21/18 Q1019
Conditions at: FAKM (KIMBERLEY/BJ VOR, ZA) observed 0100 UTC 15 February 2019
Temperature: 21.0°C (70°F)
Dewpoint: 18.0°C (64°F) [RH = 83%]
Pressure (altimeter): 30.09 inches Hg (1019.0 mb)
Winds: from the NNE (30 degrees) at 6 MPH (5 knots; 2.6 m/s)
Visibility: missing
Ceiling: unknown
Clouds: missing
Weather: no significant weather observed at this time

METAR text: FAKM 150000Z AUTO 04007KT //// // ////// 21/18 Q1019
Conditions at: FAKM (KIMBERLEY/BJ VOR, ZA) observed 0000 UTC 15 February 2019
Temperature: 21.0°C (70°F)
Dewpoint: 18.0°C (64°F) [RH = 83%]
Pressure (altimeter): 30.09 inches Hg (1019.0 mb)
Winds: from the NE (40 degrees) at 8 MPH (7 knots; 3.6 m/s)
Visibility: missing
Ceiling: unknown
Clouds: missing
Weather: no significant weather observed at this time

METAR text: FAKM 142300Z AUTO 03010KT //// // ////// 21/17 Q1019
Conditions at: FAKM (KIMBERLEY/BJ VOR, ZA) observed 2300 UTC 14 February 2019
Temperature: 21.0°C (70°F)
Dewpoint: 17.0°C (63°F) [RH = 78%]
Pressure (altimeter): 30.09 inches Hg (1019.0 mb)
Winds: from the NNE (30 degrees) at 12 MPH (10 knots; 5.1 m/s)
Visibility: missing
Ceiling: unknown
Clouds: missing
Weather: no significant weather observed at this time

METAR text: FAKM 142200Z AUTO 02009KT //// // ////// 21/17 Q1020
Conditions at: FAKM (KIMBERLEY/BJ VOR, ZA) observed 2200 UTC 14 February 2019
Temperature: 21.0°C (70°F)
Dewpoint: 17.0°C (63°F) [RH = 78%]
Pressure (altimeter): 30.12 inches Hg (1020.0 mb)
Winds: from the NNE (20 degrees) at 10 MPH (9 knots; 4.6 m/s)
Visibility: missing
Ceiling: unknown
Clouds: missing
Weather: no significant weather observed at this time

METAR text: FAKM 142100Z AUTO 02009KT //// // ////// 22/17 Q1020
Conditions at: FAKM (KIMBERLEY/BJ VOR, ZA) observed 2100 UTC 14 February 2019
Temperature: 22.0°C (72°F)
Dewpoint: 17.0°C (63°F) [RH = 73%]
Pressure (altimeter): 30.12 inches Hg (1020.0 mb)
Winds: from the NNE (20 degrees) at 10 MPH (9 knots; 4.6 m/s)
Visibility: missing
Ceiling: unknown
Clouds: missing
Weather: no significant weather observed at this time

METAR text: FAKM 142000Z AUTO 03011KT //// // ////// 22/17 Q1020
Conditions at: FAKM (KIMBERLEY/BJ VOR, ZA) observed 2000 UTC 14 February 2019
Temperature: 22.0°C (72°F)
Dewpoint: 17.0°C (63°F) [RH = 73%]
Pressure (altimeter): 30.12 inches Hg (1020.0 mb)
Winds: from the NNE (30 degrees) at 13 MPH (11 knots; 5.7 m/s)
Visibility: missing
Ceiling: unknown
Clouds: missing
Weather: no significant weather observed at this time

METAR text: FAKM 141900Z AUTO 03011KT //// // ////// 23/17 Q1020
Conditions at: FAKM (KIMBERLEY/BJ VOR, ZA) observed 1900 UTC 14 February 2019
Temperature: 23.0°C (73°F)
Dewpoint: 17.0°C (63°F) [RH = 69%]
Pressure (altimeter): 30.12 inches Hg (1020.0 mb)
Winds: from the NNE (30 degrees) at 13 MPH (11 knots; 5.7 m/s)
Visibility: missing
Ceiling: unknown
Clouds: missing
Weather: no significant weather observed at this time

Forecast for: FAKM (KIMBERLEY/BJ VOR, ZA)
Text: TAF FAKM 160300Z 1604/1615 VRB03KT CAVOK TX28/1612Z TN17/1604Z
Forecast period: 0400 to 0800 UTC 16 February 2019
Forecast type: FROM: standard forecast or significant change
Winds: variable direction winds at 3 MPH (3 knots; 1.5 m/s)
Visibility: 6 or more miles 10+ km)
Ceiling: unknown
Clouds: missing
Weather: no significant weather forecast for this period
Text: BECMG 1608/1610 SCT040
Forecast period: 0800 to 1500 UTC 16 February 2019
Forecast type: BECOMING: Conditions expected to become as follows by 1000 UTC 16 February 2019
Winds: variable direction winds at 3 MPH (3 knots; 1.5 m/s)
Visibility: 6 or more miles 10+ km)
Ceiling: at least 12,000 feet AGL
Clouds: scattered clouds at 4000 feet AGL
Weather: no significant weather forecast for this period